Time;durP1;ratioP1;P1;durP2;ratioP2;P2;SDS_P1;SDS_P2;PMS_P1;PMS_P2;Temp;Humidity;BMP_temperature;BMP_pressure;BME280_temperature;BME280_humidity;BME280_pressure;Samples;Min_cycle;Max_cycle;Signal;HPM_P1;HPM_P2
2021/06/28 00:01:21;;;;;;;27.40;18.27;;;;;;;;;;6090683;29;20052;-72
2021/06/28 00:04:22;;;;;;;15.13;6.65;;;;;;;;;;6088979;29;20052;-73
2021/06/28 00:07:24;;;;;;;5.20;3.65;;;;;;;;;;6086795;29;20053;-69
2021/06/28 00:10:27;;;;;;;6.55;3.35;;;;;;;;;;6094624;29;20067;-70
2021/06/28 00:13:29;;;;;;;;;;;;;;;;;;6094714;29;20071;-70
2021/06/28 00:16:32;;;;;;;6.20;3.50;;;;;;;;;;6081437;29;19954;-69
2021/06/28 00:19:33;;;;;;;;;;;;;;;;;;6082943;29;20056;-70
2021/06/28 00:22:35;;;;;;;4.88;3.50;;;;;;;;;;6090447;29;20878;-70
2021/06/28 00:25:37;;;;;;;9.30;3.30;;;;;;;;;;6083441;29;20057;-75
2021/06/28 00:28:39;;;;;;;8.13;3.30;;;;;;;;;;6089800;29;20517;-75
2021/06/28 00:31:42;;;;;;;6.80;3.60;;;;;;;;;;6082766;29;20052;-75
2021/06/28 00:34:44;;;;;;;7.22;3.35;;;;;;;;;;6095023;29;20055;-74
2021/06/28 00:37:46;;;;;;;7.70;3.17;;;;;;;;;;6091059;29;20063;-72
2021/06/28 00:40:49;;;;;;;8.00;3.20;;;;;;;;;;6098746;29;20049;-75
2021/06/28 00:43:50;;;;;;;9.27;3.45;;;;;;;;;;6094057;29;20047;-74
2021/06/28 00:46:53;;;;;;;9.20;3.20;;;;;;;;;;6089781;29;20044;-74
2021/06/28 00:49:55;;;;;;;7.75;3.63;;;;;;;;;;6095420;29;20053;-74
2021/06/28 00:53:01;;;;;;;4.55;3.13;;;;;;;;;;6093120;29;20475;-74
2021/06/28 00:56:10;;;;;;;6.40;2.88;;;;;;;;;;6100842;29;20052;-73
2021/06/28 00:59:12;;;;;;;7.53;3.28;;;;;;;;;;6082609;29;20051;-72
2021/06/28 01:02:15;;;;;;;4.38;2.90;;;;;;;;;;6087340;29;20059;-73
2021/06/28 01:05:20;;;;;;;3.83;3.15;;;;;;;;;;6079680;29;20063;-73
2021/06/28 01:08:21;;;;;;;7.57;2.78;;;;;;;;;;6089311;29;20063;-72
2021/06/28 01:11:23;;;;;;;8.13;3.78;;;;;;;;;;6085062;29;20059;-72
2021/06/28 01:14:26;;;;;;;6.88;3.40;;;;;;;;;;6086234;29;21293;-72
2021/06/28 01:17:29;;;;;;;4.35;3.28;;;;;;;;;;6090650;29;20068;-72
2021/06/28 01:20:32;;;;;;;;;;;;;;;;;;6089861;29;20059;-72
2021/06/28 01:23:35;;;;;;;3.78;3.00;;;;;;;;;;6088663;29;19930;-72
2021/06/28 01:26:37;;;;;;;5.38;3.00;;;;;;;;;;6083196;29;20055;-72
2021/06/28 01:29:39;;;;;;;6.70;3.08;;;;;;;;;;6075487;29;20047;-73
2021/06/28 01:32:42;;;;;;;4.47;2.88;;;;;;;;;;6088570;29;20124;-73
2021/06/28 01:35:44;;;;;;;6.22;2.88;;;;;;;;;;6086744;29;20052;-72
2021/06/28 01:38:48;;;;;;;4.18;2.70;;;;;;;;;;6084203;29;20429;-73
2021/06/28 01:41:50;;;;;;;5.75;3.20;;;;;;;;;;6079646;29;20401;-73
2021/06/28 01:44:52;;;;;;;6.38;2.72;;;;;;;;;;6083492;29;20055;-73
2021/06/28 01:47:57;;;;;;;5.70;3.00;;;;;;;;;;6075829;29;20044;-72
2021/06/28 01:50:58;;;;;;;5.93;2.85;;;;;;;;;;6082635;29;20514;-75
2021/06/28 01:54:01;;;;;;;7.47;2.80;;;;;;;;;;6088529;29;20516;-72
2021/06/28 01:57:04;;;;;;;3.58;2.88;;;;;;;;;;6084864;29;20048;-75
2021/06/28 02:00:07;;;;;;;5.40;3.07;;;;;;;;;;6086847;29;20056;-75
2021/06/28 02:03:11;;;;;;;5.35;3.78;;;;;;;;;;6081948;29;20064;-73
2021/06/28 02:06:13;;;;;;;3.72;3.08;;;;;;;;;;6082796;29;20052;-73
2021/06/28 02:09:16;;;;;;;4.22;2.90;;;;;;;;;;6084664;29;20087;-73
2021/06/28 02:12:18;;;;;;;4.53;2.83;;;;;;;;;;6081839;29;20174;-72
2021/06/28 02:15:20;;;;;;;4.95;2.90;;;;;;;;;;6082151;29;20065;-72
2021/06/28 02:18:25;;;;;;;3.33;2.83;;;;;;;;;;6086441;29;20059;-72
2021/06/28 02:21:27;;;;;;;3.13;2.80;;;;;;;;;;6086736;29;20072;-73
2021/06/28 02:24:30;;;;;;;6.53;2.95;;;;;;;;;;6089360;29;20059;-72
2021/06/28 02:27:32;;;;;;;4.72;3.03;;;;;;;;;;6090310;29;20496;-74
2021/06/28 02:30:34;;;;;;;3.22;2.88;;;;;;;;;;6089162;29;20052;-72
2021/06/28 02:33:37;;;;;;;5.93;3.00;;;;;;;;;;6084885;29;21506;-72
2021/06/28 02:36:39;;;;;;;5.05;3.10;;;;;;;;;;6089734;29;20063;-72
2021/06/28 02:39:42;;;;;;;4.65;2.95;;;;;;;;;;6087468;29;20068;-72
2021/06/28 02:42:43;;;;;;;6.13;2.88;;;;;;;;;;6085117;29;21512;-72
2021/06/28 02:45:46;;;;;;;6.82;3.20;;;;;;;;;;6088008;29;20059;-72
2021/06/28 02:48:47;;;;;;;3.78;2.75;;;;;;;;;;6089741;29;20075;-72
2021/06/28 02:51:49;;;;;;;4.47;3.40;;;;;;;;;;6092659;29;20044;-72
2021/06/28 02:54:52;;;;;;;3.83;2.90;;;;;;;;;;6086737;29;20059;-73
2021/06/28 02:57:54;;;;;;;3.80;2.70;;;;;;;;;;6100726;29;20049;-72
2021/06/28 03:00:56;;;;;;;6.90;2.92;;;;;;;;;;6098632;29;20055;-72
2021/06/28 03:03:57;;;;;;;5.10;2.97;;;;;;;;;;6095459;29;20052;-74
2021/06/28 03:06:59;;;;;;;3.88;3.28;;;;;;;;;;6090754;29;20048;-73
2021/06/28 03:10:04;;;;;;;5.35;3.28;;;;;;;;;;6090579;29;20048;-72
2021/06/28 03:13:07;;;;;;;4.45;2.78;;;;;;;;;;6090556;29;20074;-75
2021/06/28 03:16:09;;;;;;;3.72;2.60;;;;;;;;;;6085653;29;20428;-72
2021/06/28 03:19:11;;;;;;;3.58;2.90;;;;;;;;;;6097953;29;20047;-73
2021/06/28 03:22:13;;;;;;;5.78;2.83;;;;;;;;;;6088895;29;20053;-73
2021/06/28 03:25:18;;;;;;;3.28;2.63;;;;;;;;;;6084542;29;20422;-73
2021/06/28 03:28:20;;;;;;;5.57;2.70;;;;;;;;;;6092628;29;20059;-71
2021/06/28 03:31:21;;;;;;;5.93;2.67;;;;;;;;;;6093083;29;20061;-73
2021/06/28 03:34:23;;;;;;;6.00;3.33;;;;;;;;;;6094677;29;20052;-71
2021/06/28 03:37:25;;;;;;;7.22;2.83;;;;;;;;;;6099706;29;20048;-72
2021/06/28 03:40:32;;;;;;;3.20;2.90;;;;;;;;;;6110981;29;20192;-71
2021/06/28 03:43:33;;;;;;;8.02;3.05;;;;;;;;;;6091373;29;20203;-71
2021/06/28 03:46:35;;;;;;;7.60;3.75;;;;;;;;;;6098601;29;20052;-71
2021/06/28 03:49:37;;;;;;;5.40;2.83;;;;;;;;;;6087495;29;20059;-72
2021/06/28 03:52:39;;;;;;;4.22;2.83;;;;;;;;;;6090721;29;20056;-71
2021/06/28 03:55:42;;;;;;;6.88;3.03;;;;;;;;;;6092981;29;20052;-73
2021/06/28 03:58:44;;;;;;;;;;;;;;;;;;6094137;29;20055;-71
2021/06/28 04:01:46;;;;;;;5.40;3.47;;;;;;;;;;6091563;29;19927;-71
2021/06/28 04:04:49;;;;;;;10.25;3.05;;;;;;;;;;6096629;29;20048;-71
2021/06/28 04:07:51;;;;;;;8.23;3.42;;;;;;;;;;6095411;29;20055;-72
2021/06/28 04:10:54;;;;;;;9.88;3.30;;;;;;;;;;6094029;29;20059;-72
2021/06/28 04:13:55;;;;;;;11.25;3.10;;;;;;;;;;6089636;29;20040;-73
2021/06/28 04:16:57;;;;;;;4.85;2.70;;;;;;;;;;6088576;29;20767;-71
2021/06/28 04:20:02;;;;;;;11.77;2.88;;;;;;;;;;6092438;29;20060;-72
2021/06/28 04:23:04;;;;;;;7.97;3.20;;;;;;;;;;6094184;29;20495;-72
2021/06/28 04:26:07;;;;;;;6.15;3.00;;;;;;;;;;6089637;29;20059;-71
2021/06/28 04:29:08;;;;;;;5.68;2.88;;;;;;;;;;6089623;29;20048;-71
2021/06/28 04:32:10;;;;;;;5.47;3.08;;;;;;;;;;6086996;29;20127;-72
2021/06/28 04:35:14;;;;;;;4.32;3.00;;;;;;;;;;6083355;29;20044;-74
2021/06/28 04:38:16;;;;;;;6.90;2.75;;;;;;;;;;6088883;29;20048;-71
2021/06/28 04:41:19;;;;;;;5.75;3.20;;;;;;;;;;6085706;29;20049;-72
2021/06/28 04:44:20;;;;;;;6.43;3.08;;;;;;;;;;6068915;29;20083;-74
2021/06/28 04:47:22;;;;;;;5.75;2.95;;;;;;;;;;6083654;29;20148;-73
2021/06/28 04:50:24;;;;;;;5.43;3.13;;;;;;;;;;6085314;29;20195;-73
2021/06/28 04:53:26;;;;;;;4.95;2.80;;;;;;;;;;6092093;29;20048;-73
2021/06/28 04:56:29;;;;;;;9.60;3.22;;;;;;;;;;6090899;29;20131;-74
2021/06/28 04:59:31;;;;;;;11.07;3.70;;;;;;;;;;6087542;29;20044;-73
2021/06/28 05:02:32;;;;;;;32.08;5.07;;;;;;;;;;6090134;29;20048;-74
2021/06/28 05:05:34;;;;;;;10.90;3.08;;;;;;;;;;6091564;29;20064;-74
2021/06/28 05:08:35;;;;;;;10.10;3.00;;;;;;;;;;6089189;29;20171;-73
2021/06/28 05:11:38;;;;;;;14.07;3.20;;;;;;;;;;6088766;29;20044;-71
2021/06/28 05:14:40;;;;;;;5.20;3.00;;;;;;;;;;6085904;29;20056;-72
2021/06/28 05:17:42;;;;;;;4.47;2.88;;;;;;;;;;6094037;29;20074;-72
2021/06/28 05:20:43;;;;;;;5.75;2.97;;;;;;;;;;6085720;29;20551;-72
2021/06/28 05:23:45;;;;;;;6.18;3.65;;;;;;;;;;6084103;29;20107;-71
2021/06/28 05:26:48;;;;;;;6.95;2.97;;;;;;;;;;6090137;29;20075;-72
2021/06/28 05:29:55;;;;;;;5.00;2.97;;;;;;;;;;6084635;29;20103;-70
2021/06/28 05:32:58;;;;;;;10.48;3.20;;;;;;;;;;6085919;29;20091;-73
2021/06/28 05:35:59;;;;;;;4.72;2.88;;;;;;;;;;6079268;29;20135;-72
2021/06/28 05:39:01;;;;;;;6.22;3.10;;;;;;;;;;6085797;29;20044;-71
2021/06/28 05:42:05;;;;;;;7.47;3.35;;;;;;;;;;6090850;29;20127;-71
2021/06/28 05:45:08;;;;;;;7.18;2.90;;;;;;;;;;6085405;29;20103;-71
2021/06/28 05:48:10;;;;;;;10.50;2.92;;;;;;;;;;6083665;29;20048;-71
2021/06/28 05:51:12;;;;;;;6.90;2.90;;;;;;;;;;6091045;29;20100;-71
2021/06/28 05:54:13;;;;;;;6.97;3.08;;;;;;;;;;6090133;29;20060;-73
2021/06/28 05:57:18;;;;;;;5.85;3.00;;;;;;;;;;6087872;29;20048;-71
2021/06/28 06:00:22;;;;;;;7.60;3.38;;;;;;;;;;6089966;29;20814;-70
2021/06/28 06:03:24;;;;;;;7.53;3.33;;;;;;;;;;6089019;29;20529;-70
2021/06/28 06:06:25;;;;;;;7.57;3.13;;;;;;;;;;6093935;29;20140;-71
2021/06/28 06:09:27;;;;;;;13.18;3.53;;;;;;;;;;6091810;29;20060;-71
2021/06/28 06:12:30;;;;;;;9.48;3.28;;;;;;;;;;6095392;29;20060;-71
2021/06/28 06:15:31;;;;;;;;;;;;;;;;;;6094615;29;20130;-71
2021/06/28 06:18:33;;;;;;;11.85;3.35;;;;;;;;;;6092756;29;19983;-71
2021/06/28 06:21:36;;;;;;;10.05;3.60;;;;;;;;;;6096887;29;20052;-72
2021/06/28 06:24:37;;;;;;;8.82;3.15;;;;;;;;;;6086515;29;20044;-71
2021/06/28 06:27:41;;;;;;;4.32;3.55;;;;;;;;;;6083513;29;20503;-71
2021/06/28 06:30:42;;;;;;;;;;;;;;;;;;6089618;29;20055;-71
2021/06/28 06:33:44;;;;;;;10.23;2.97;;;;;;;;;;6093606;29;20529;-72
2021/06/28 06:36:46;;;;;;;6.55;3.00;;;;;;;;;;6090785;29;20185;-78
2021/06/28 06:39:47;;;;;;;4.30;3.15;;;;;;;;;;6090621;29;20563;-73
2021/06/28 06:42:51;;;;;;;7.57;3.20;;;;;;;;;;6096122;29;20056;-75
2021/06/28 06:45:53;;;;;;;5.22;2.97;;;;;;;;;;6098795;29;20052;-75
2021/06/28 06:48:55;;;;;;;7.10;3.03;;;;;;;;;;6096137;29;20513;-76
2021/06/28 06:51:56;;;;;;;6.70;2.92;;;;;;;;;;6101138;29;20052;-76
2021/06/28 06:54:58;;;;;;;11.05;2.92;;;;;;;;;;6097354;29;20516;-74
2021/06/28 06:58:01;;;;;;;10.55;3.13;;;;;;;;;;6099228;29;20205;-81
2021/06/28 07:01:02;;;;;;;;;;;;;;;;;;6097022;29;20056;-75
2021/06/28 07:04:04;;;;;;;6.20;3.03;;;;;;;;;;6095879;29;20010;-75
2021/06/28 07:07:06;;;;;;;8.27;3.53;;;;;;;;;;6096951;29;20044;-77
2021/06/28 07:10:08;;;;;;;4.35;2.75;;;;;;;;;;6085502;29;20493;-74
2021/06/28 07:13:11;;;;;;;6.22;3.00;;;;;;;;;;6096849;29;20119;-73
2021/06/28 07:16:13;;;;;;;6.88;2.80;;;;;;;;;;6086998;29;20696;-74
2021/06/28 07:19:14;;;;;;;9.70;3.10;;;;;;;;;;6098378;29;20499;-73
2021/06/28 07:22:16;;;;;;;8.43;3.55;;;;;;;;;;6090410;29;20056;-71
2021/06/28 07:25:18;;;;;;;6.70;2.70;;;;;;;;;;6094887;29;20123;-73
2021/06/28 07:28:21;;;;;;;5.93;2.72;;;;;;;;;;6092173;29;20142;-78
2021/06/28 07:31:23;;;;;;;7.22;3.00;;;;;;;;;;6090905;29;20052;-71
2021/06/28 07:34:24;;;;;;;10.93;3.00;;;;;;;;;;6098211;29;20444;-72
2021/06/28 07:37:26;;;;;;;7.25;2.55;;;;;;;;;;6094858;29;20555;-77
2021/06/28 07:40:27;;;;;;;6.40;2.40;;;;;;;;;;6100585;29;20776;-72
2021/06/28 07:43:30;;;;;;;7.93;2.55;;;;;;;;;;6092722;29;20128;-72
2021/06/28 07:46:32;;;;;;;;;;;;;;;;;;6099928;29;20076;-72
2021/06/28 07:49:33;;;;;;;8.60;2.25;;;;;;;;;;6103329;29;20026;-72
2021/06/28 07:52:35;;;;;;;5.97;2.15;;;;;;;;;;6099303;29;20056;-73
2021/06/28 07:55:37;;;;;;;3.67;1.75;;;;;;;;;;6092428;29;20048;-73
2021/06/28 07:58:40;;;;;;;4.43;1.98;;;;;;;;;;6094509;29;20135;-74
2021/06/28 08:01:41;;;;;;;5.80;2.22;;;;;;;;;;6095396;29;20816;-74
2021/06/28 08:04:43;;;;;;;6.30;1.80;;;;;;;;;;6080569;29;20164;-73
2021/06/28 08:07:45;;;;;;;7.55;2.50;;;;;;;;;;6094158;29;20150;-74
2021/06/28 08:10:46;;;;;;;5.40;1.83;;;;;;;;;;6090266;29;20099;-75
2021/06/28 08:13:51;;;;;;;5.78;1.80;;;;;;;;;;6094453;29;20063;-79
2021/06/28 08:16:52;;;;;;;4.40;1.80;;;;;;;;;;6092546;29;20107;-73
2021/06/28 08:19:54;;;;;;;10.05;2.33;;;;;;;;;;6091456;29;20193;-73
2021/06/28 08:22:56;;;;;;;7.30;2.10;;;;;;;;;;6102169;29;20195;-73
2021/06/28 08:25:57;;;;;;;6.45;1.80;;;;;;;;;;6095732;29;20786;-72
2021/06/28 08:29:02;;;;;;;5.50;2.00;;;;;;;;;;6095033;29;20853;-74
2021/06/28 08:32:04;;;;;;;3.47;1.95;;;;;;;;;;6091515;29;20048;-74
2021/06/28 08:35:07;;;;;;;4.47;1.75;;;;;;;;;;6094022;29;20188;-77
2021/06/28 08:38:09;;;;;;;2.53;2.00;;;;;;;;;;6086698;29;20094;-73
2021/06/28 08:41:15;;;;;;;4.57;2.10;;;;;;;;;;6093878;29;20131;-71
2021/06/28 08:44:18;;;;;;;4.43;1.90;;;;;;;;;;6093692;29;20055;-72
2021/06/28 08:47:21;;;;;;;3.72;1.70;;;;;;;;;;6091613;29;20060;-74
2021/06/28 08:50:23;;;;;;;4.85;1.95;;;;;;;;;;6094479;29;20143;-75
2021/06/28 08:53:24;;;;;;;5.57;2.05;;;;;;;;;;6088372;29;20135;-71
2021/06/28 08:56:26;;;;;;;5.30;2.22;;;;;;;;;;6097893;29;20043;-73
2021/06/28 08:59:29;;;;;;;7.60;2.75;;;;;;;;;;6101488;29;20053;-73
2021/06/28 09:02:30;;;;;;;5.30;2.38;;;;;;;;;;6093057;29;20168;-73
2021/06/28 09:05:51;;;;;;;4.20;2.15;;;;;;;;;;6098283;29;20095;-73
2021/06/28 09:08:56;;;;;;;4.18;3.05;;;;;;;;;;6088789;29;20052;-74
2021/06/28 09:11:58;;;;;;;4.35;2.95;;;;;;;;;;6087856;29;20107;-73
2021/06/28 09:15:02;;;;;;;6.80;2.70;;;;;;;;;;6093559;29;20404;-74
2021/06/28 09:18:22;;;;;;;8.02;2.50;;;;;;;;;;6092887;29;20091;-73
2021/06/28 09:21:27;;;;;;;5.50;2.20;;;;;;;;;;6097701;29;20189;-74
2021/06/28 09:24:30;;;;;;;4.28;2.00;;;;;;;;;;6098495;29;20505;-73
2021/06/28 09:27:35;;;;;;;5.20;1.60;;;;;;;;;;6089687;29;20119;-75
2021/06/28 09:30:40;;;;;;;4.88;1.75;;;;;;;;;;6089462;29;20063;-73
2021/06/28 09:33:41;;;;;;;4.43;3.15;;;;;;;;;;6096861;29;20060;-73
2021/06/28 09:36:54;;;;;;;5.77;3.13;;;;;;;;;;6098136;29;20131;-73
2021/06/28 09:39:57;;;;;;;;;;;;;;;;;;6098919;29;20055;-73
2021/06/28 09:42:58;;;;;;;5.40;2.20;;;;;;;;;;6099733;29;19970;-74
2021/06/28 09:46:04;;;;;;;3.78;2.28;;;;;;;;;;6096462;29;20193;-76
2021/06/28 09:49:06;;;;;;;4.82;2.22;;;;;;;;;;6091181;29;20782;-73
2021/06/28 09:52:08;;;;;;;6.38;1.90;;;;;;;;;;6090516;29;20102;-69
2021/06/28 09:55:18;;;;;;;3.95;1.70;;;;;;;;;;6090219;29;20055;-69
2021/06/28 09:58:24;;;;;;;3.67;1.90;;;;;;;;;;6089144;29;20521;-69
2021/06/28 10:01:27;;;;;;;6.03;2.35;;;;;;;;;;6091072;29;20808;-69
2021/06/28 10:04:38;;;;;;;4.68;1.95;;;;;;;;;;6094937;29;20535;-72
2021/06/28 10:07:41;;;;;;;8.10;2.55;;;;;;;;;;6093543;29;20048;-68
2021/06/28 10:10:43;;;;;;;4.22;2.08;;;;;;;;;;6091100;29;20080;-69
2021/06/28 10:13:48;;;;;;;3.45;1.85;;;;;;;;;;6093398;29;20048;-69
2021/06/28 10:16:55;;;;;;;4.80;1.83;;;;;;;;;;6093392;29;20052;-71
2021/06/28 10:19:57;;;;;;;3.38;1.90;;;;;;;;;;6093158;29;20058;-68
2021/06/28 10:22:59;;;;;;;3.75;1.90;;;;;;;;;;6092613;29;20126;-68
2021/06/28 10:26:01;;;;;;;4.03;1.88;;;;;;;;;;6092200;29;20054;-70
2021/06/28 10:29:03;;;;;;;3.75;2.00;;;;;;;;;;6090117;29;20108;-70
2021/06/28 10:32:08;;;;;;;4.53;2.50;;;;;;;;;;6088769;29;20099;-72
2021/06/28 10:35:13;;;;;;;4.72;2.10;;;;;;;;;;6088339;29;20053;-71
2021/06/28 10:38:16;;;;;;;5.88;1.98;;;;;;;;;;6090491;29;20473;-68
2021/06/28 10:41:34;;;;;;;4.30;1.63;;;;;;;;;;6093462;29;20381;-73
2021/06/28 10:44:47;;;;;;;4.35;2.13;;;;;;;;;;6088554;29;20044;-73
2021/06/28 10:48:09;;;;;;;6.03;2.58;;;;;;;;;;6090285;29;20076;-73
2021/06/28 10:51:10;;;;;;;5.90;2.27;;;;;;;;;;6086341;29;20087;-71
2021/06/28 10:54:15;;;;;;;5.43;2.30;;;;;;;;;;6090986;29;20527;-72
2021/06/28 10:57:17;;;;;;;5.00;2.10;;;;;;;;;;6090662;29;20045;-71
2021/06/28 11:00:52;;;;;;;4.90;2.53;;;;;;;;;;6088424;29;20250;-72
2021/06/28 11:04:06;;;;;;;7.78;2.60;;;;;;;;;;6088331;29;20437;-72
2021/06/28 11:07:17;;;;;;;3.72;1.90;;;;;;;;;;6084264;29;20087;-74
2021/06/28 11:10:37;;;;;;;6.15;1.95;;;;;;;;;;6090905;29;20540;-72
2021/06/28 11:13:52;;;;;;;7.40;2.47;;;;;;;;;;6092750;29;20181;-72
2021/06/28 11:16:56;;;;;;;5.32;2.20;;;;;;;;;;6091771;29;20135;-72
2021/06/28 11:20:02;;;;;;;5.15;1.92;;;;;;;;;;6092318;29;20412;-71
2021/06/28 11:23:06;;;;;;;3.10;2.10;;;;;;;;;;6088133;29;20768;-71
2021/06/28 11:26:08;;;;;;;5.82;2.20;;;;;;;;;;6094551;29;20040;-70
2021/06/28 11:29:11;;;;;;;5.18;2.30;;;;;;;;;;6088252;29;20544;-71
2021/06/28 11:32:22;;;;;;;8.63;2.30;;;;;;;;;;6095605;29;20475;-73
2021/06/28 11:35:39;;;;;;;3.78;1.95;;;;;;;;;;6092687;29;20047;-72
2021/06/28 11:38:43;;;;;;;11.07;2.47;;;;;;;;;;6092049;29;20095;-70
2021/06/28 11:41:45;;;;;;;4.55;2.13;;;;;;;;;;6096207;29;20130;-70
2021/06/28 11:44:51;;;;;;;4.85;2.00;;;;;;;;;;6092411;29;20048;-73
2021/06/28 11:48:12;;;;;;;3.85;2.20;;;;;;;;;;6094758;29;20127;-73
2021/06/28 11:51:21;;;;;;;3.50;1.80;;;;;;;;;;6094134;29;20136;-72
2021/06/28 11:54:24;;;;;;;3.00;1.63;;;;;;;;;;6100365;29;20527;-72
2021/06/28 11:57:25;;;;;;;4.35;1.83;;;;;;;;;;6099543;29;20131;-72
2021/06/28 12:00:28;;;;;;;3.10;1.70;;;;;;;;;;6091623;29;20056;-71
2021/06/28 12:03:38;;;;;;;5.50;1.88;;;;;;;;;;6093229;29;20644;-72
2021/06/28 12:06:56;;;;;;;5.32;1.50;;;;;;;;;;6095256;29;20508;-73
2021/06/28 12:09:59;;;;;;;4.22;1.58;;;;;;;;;;6095755;29;20052;-72
2021/06/28 12:13:03;;;;;;;3.80;1.80;;;;;;;;;;6101769;29;20047;-75
2021/06/28 12:16:20;;;;;;;4.18;1.60;;;;;;;;;;6094942;29;20147;-74
2021/06/28 12:19:21;;;;;;;2.22;1.58;;;;;;;;;;6093621;29;20063;-73
2021/06/28 12:22:27;;;;;;;4.22;1.52;;;;;;;;;;6097297;29;20110;-74
2021/06/28 12:25:28;;;;;;;6.68;1.30;;;;;;;;;;6100136;29;20131;-72
2021/06/28 12:28:30;;;;;;;3.63;1.30;;;;;;;;;;6094578;29;20432;-73
2021/06/28 12:31:32;;;;;;;5.57;2.00;;;;;;;;;;6093355;29;20102;-71
2021/06/28 12:34:34;;;;;;;2.60;1.45;;;;;;;;;;6095505;29;20071;-80
2021/06/28 12:37:37;;;;;;;;;;;;;;;;;;6100008;29;20063;-76
2021/06/28 12:40:42;;;;;;;3.28;1.52;;;;;;;;;;6094214;29;19923;-72
2021/06/28 12:43:44;;;;;;;3.45;1.42;;;;;;;;;;6099589;29;20044;-73
2021/06/28 12:46:46;;;;;;;2.00;1.35;;;;;;;;;;6085976;29;20091;-73
2021/06/28 12:49:47;;;;;;;;;;;;;;;;;;6097081;29;20122;-73
2021/06/28 12:52:51;;;;;;;2.90;1.60;;;;;;;;;;6091458;29;19923;-72
2021/06/28 12:56:05;;;;;;;6.07;1.60;;;;;;;;;;6099717;29;20130;-72
2021/06/28 12:59:06;;;;;;;2.35;1.40;;;;;;;;;;6092652;29;20044;-72
2021/06/28 13:02:08;;;;;;;4.68;1.48;;;;;;;;;;6086599;29;20107;-72
2021/06/28 13:05:11;;;;;;;4.35;1.25;;;;;;;;;;6093900;29;20119;-71
2021/06/28 13:08:19;;;;;;;1.60;1.30;;;;;;;;;;6094833;29;20121;-75
2021/06/28 13:11:21;;;;;;;2.42;1.30;;;;;;;;;;6092811;29;20191;-80
2021/06/28 13:14:24;;;;;;;5.38;1.58;;;;;;;;;;6098821;29;20059;-72
2021/06/28 13:17:30;;;;;;;6.00;1.70;;;;;;;;;;6100015;29;20074;-72
2021/06/28 13:20:31;;;;;;;5.57;1.70;;;;;;;;;;6095508;29;20048;-72
2021/06/28 13:23:34;;;;;;;5.38;1.45;;;;;;;;;;6094182;29;20127;-72
2021/06/28 13:26:38;;;;;;;5.25;1.50;;;;;;;;;;6093002;29;20048;-77
2021/06/28 13:29:41;;;;;;;4.65;1.58;;;;;;;;;;6093460;29;20048;-75
2021/06/28 13:32:43;;;;;;;2.53;1.77;;;;;;;;;;6097935;29;20700;-72
2021/06/28 13:35:44;;;;;;;2.00;1.60;;;;;;;;;;6092766;29;20177;-72
2021/06/28 13:38:53;;;;;;;;;;;;;;;;;;6098246;29;20056;-75
2021/06/28 13:41:55;;;;;;;1.77;1.50;;;;;;;;;;6091937;29;20457;-72
2021/06/28 13:45:02;;;;;;;5.15;1.70;;;;;;;;;;6096166;29;20079;-73
2021/06/28 13:48:06;;;;;;;7.38;1.70;;;;;;;;;;6091720;29;20048;-72
2021/06/28 13:51:12;;;;;;;5.47;1.95;;;;;;;;;;6089553;29;20051;-72
2021/06/28 13:54:15;;;;;;;2.97;1.40;;;;;;;;;;6094195;29;20047;-71
2021/06/28 13:57:19;;;;;;;1.80;1.40;;;;;;;;;;6092189;29;20571;-74
2021/06/28 14:00:23;;;;;;;2.05;1.85;;;;;;;;;;6088540;29;20127;-71
2021/06/28 14:03:24;;;;;;;2.72;1.58;;;;;;;;;;6090082;29;20655;-71
2021/06/28 14:06:26;;;;;;;27.73;3.53;;;;;;;;;;6092303;29;20153;-73
2021/06/28 14:09:29;;;;;;;3.13;1.65;;;;;;;;;;6094038;29;20098;-75
2021/06/28 14:12:31;;;;;;;2.22;1.33;;;;;;;;;;6093046;29;20056;-72
2021/06/28 14:15:33;;;;;;;2.60;1.38;;;;;;;;;;6077934;29;20056;-77
2021/06/28 14:18:34;;;;;;;4.82;1.60;;;;;;;;;;6093056;29;20059;-72
2021/06/28 14:21:37;;;;;;;8.25;2.00;;;;;;;;;;6093376;29;20123;-72
2021/06/28 14:24:40;;;;;;;5.40;1.58;;;;;;;;;;6093810;29;20056;-71
2021/06/28 14:27:42;;;;;;;6.05;1.85;;;;;;;;;;6092377;29;20325;-74
2021/06/28 14:30:43;;;;;;;2.20;1.60;;;;;;;;;;6102241;29;20079;-72
2021/06/28 14:33:45;;;;;;;3.85;1.50;;;;;;;;;;6095529;29;20052;-72
2021/06/28 14:36:46;;;;;;;3.58;1.60;;;;;;;;;;6094339;29;20577;-72
2021/06/28 14:39:49;;;;;;;6.40;1.75;;;;;;;;;;6098697;29;20444;-72
2021/06/28 14:42:51;;;;;;;7.63;2.22;;;;;;;;;;6104574;29;20108;-79
2021/06/28 14:45:53;;;;;;;5.47;1.65;;;;;;;;;;6089134;29;20052;-71
2021/06/28 14:48:54;;;;;;;4.80;1.60;;;;;;;;;;6104836;29;20058;-71
2021/06/28 14:51:56;;;;;;;7.32;1.67;;;;;;;;;;6099525;29;21010;-73
2021/06/28 14:55:00;;;;;;;6.13;1.83;;;;;;;;;;6094528;29;20057;-75
2021/06/28 14:58:01;;;;;;;4.97;1.90;;;;;;;;;;6101161;29;20082;-72
2021/06/28 15:01:03;;;;;;;10.87;2.10;;;;;;;;;;6100889;29;20368;-72
2021/06/28 15:04:05;;;;;;;5.63;1.83;;;;;;;;;;6100239;29;20501;-73
2021/06/28 15:07:06;;;;;;;5.63;1.58;;;;;;;;;;6088633;29;20180;-72
2021/06/28 15:10:11;;;;;;;6.07;2.13;;;;;;;;;;6097582;29;20091;-78
2021/06/28 15:13:12;;;;;;;4.57;1.75;;;;;;;;;;6094742;29;20052;-71
2021/06/28 15:16:14;;;;;;;4.07;1.83;;;;;;;;;;6094689;29;20130;-72
2021/06/28 15:19:16;;;;;;;5.97;1.77;;;;;;;;;;6095842;29;20408;-71
2021/06/28 15:22:19;;;;;;;5.30;1.80;;;;;;;;;;6093435;29;20075;-72
2021/06/28 15:25:23;;;;;;;5.32;1.63;;;;;;;;;;6095633;29;20127;-73
2021/06/28 15:28:25;;;;;;;4.15;1.60;;;;;;;;;;6093454;29;20083;-77
2021/06/28 15:31:27;;;;;;;5.32;1.83;;;;;;;;;;6091795;29;20080;-71
2021/06/28 15:34:28;;;;;;;;;;;;;;;;;;6100685;29;20052;-73
2021/06/28 15:37:30;;;;;;;4.18;1.90;;;;;;;;;;6098346;29;20010;-72
2021/06/28 15:40:33;;;;;;;2.57;1.73;;;;;;;;;;6097593;29;20078;-72
2021/06/28 15:43:37;;;;;;;2.75;1.80;;;;;;;;;;6093870;29;20135;-71
2021/06/28 15:46:38;;;;;;;1.63;1.52;;;;;;;;;;6093736;29;20055;-71
2021/06/28 15:49:40;;;;;;;6.57;1.60;;;;;;;;;;6095547;29;20138;-71
2021/06/28 15:52:42;;;;;;;5.00;1.60;;;;;;;;;;6100905;29;20063;-72
2021/06/28 15:55:45;;;;;;;2.95;1.80;;;;;;;;;;6096904;29;20071;-73
2021/06/28 15:58:46;;;;;;;2.20;1.70;;;;;;;;;;6095896;29;20048;-76
2021/06/28 16:01:48;;;;;;;3.05;1.80;;;;;;;;;;6083914;29;20191;-74
2021/06/28 16:04:50;;;;;;;4.87;1.70;;;;;;;;;;6091059;29;20172;-73
2021/06/28 16:07:52;;;;;;;2.08;1.80;;;;;;;;;;6093555;29;20628;-70
2021/06/28 16:10:55;;;;;;;6.75;2.08;;;;;;;;;;6098685;29;20123;-73
2021/06/28 16:13:56;;;;;;;3.10;1.83;;;;;;;;;;6094090;29;20109;-73
2021/06/28 16:16:58;;;;;;;4.50;1.80;;;;;;;;;;6092155;29;20199;-71
2021/06/28 16:19:59;;;;;;;3.70;2.15;;;;;;;;;;6093181;29;20107;-71
2021/06/28 16:23:01;;;;;;;5.90;2.00;;;;;;;;;;6086018;29;20071;-72
2021/06/28 16:26:04;;;;;;;2.80;2.00;;;;;;;;;;6089621;29;20044;-72
2021/06/28 16:29:06;;;;;;;2.38;1.45;;;;;;;;;;6094753;29;20072;-71
2021/06/28 16:32:08;;;;;;;3.33;2.17;;;;;;;;;;6091201;29;20071;-73
2021/06/28 16:35:12;;;;;;;6.40;2.08;;;;;;;;;;6093148;29;20086;-73
2021/06/28 16:38:14;;;;;;;7.60;1.80;;;;;;;;;;6090308;29;20127;-76
2021/06/28 16:41:17;;;;;;;4.85;1.95;;;;;;;;;;6085467;29;20048;-72
2021/06/28 16:44:19;;;;;;;5.38;1.98;;;;;;;;;;6089818;29;20053;-72
2021/06/28 16:47:20;;;;;;;3.17;1.73;;;;;;;;;;6075291;29;20072;-73
2021/06/28 16:50:22;;;;;;;6.20;1.77;;;;;;;;;;6091729;29;20200;-72
2021/06/28 16:53:23;;;;;;;4.40;1.70;;;;;;;;;;6085489;29;20528;-72
2021/06/28 16:56:26;;;;;;;2.90;1.65;;;;;;;;;;6089102;29;20398;-72
2021/06/28 16:59:28;;;;;;;4.88;1.98;;;;;;;;;;6095930;29;20155;-73
2021/06/28 17:02:29;;;;;;;3.63;1.70;;;;;;;;;;6095154;29;20142;-76
2021/06/28 17:05:31;;;;;;;3.00;1.70;;;;;;;;;;6085024;29;20080;-71
2021/06/28 17:08:33;;;;;;;3.30;2.00;;;;;;;;;;6087102;29;20060;-73
2021/06/28 17:11:36;;;;;;;6.03;2.00;;;;;;;;;;6068370;29;20111;-72
2021/06/28 17:14:38;;;;;;;3.80;2.00;;;;;;;;;;6096606;29;20055;-72
2021/06/28 17:17:39;;;;;;;4.30;1.98;;;;;;;;;;6087844;29;20040;-71
2021/06/28 17:20:41;;;;;;;8.85;2.70;;;;;;;;;;6096972;29;20127;-72
2021/06/28 17:23:43;;;;;;;2.83;1.90;;;;;;;;;;6085557;29;20118;-71
2021/06/28 17:26:46;;;;;;;2.50;1.90;;;;;;;;;;6084748;29;20068;-71
2021/06/28 17:29:48;;;;;;;4.25;1.90;;;;;;;;;;6090307;29;20127;-75
2021/06/28 17:32:49;;;;;;;4.63;2.15;;;;;;;;;;6090833;29;20143;-75
2021/06/28 17:35:51;;;;;;;3.00;2.13;;;;;;;;;;6089732;29;20076;-72
2021/06/28 17:38:53;;;;;;;4.37;2.00;;;;;;;;;;6093860;29;20135;-77
2021/06/28 17:41:57;;;;;;;4.85;2.38;;;;;;;;;;6089768;29;20144;-72
2021/06/28 17:44:59;;;;;;;2.40;1.73;;;;;;;;;;6083024;29;20056;-79
2021/06/28 17:48:00;;;;;;;3.17;2.10;;;;;;;;;;6088188;29;20048;-71
2021/06/28 17:51:03;;;;;;;5.63;1.80;;;;;;;;;;6093326;29;20884;-71
2021/06/28 17:54:05;;;;;;;8.70;2.22;;;;;;;;;;6094686;29;20591;-71
2021/06/28 17:57:08;;;;;;;5.90;1.90;;;;;;;;;;6105895;29;20044;-69
2021/06/28 18:00:13;;;;;;;5.15;2.20;;;;;;;;;;6096521;29;20048;-77
2021/06/28 18:03:14;;;;;;;3.92;2.22;;;;;;;;;;6096092;29;20063;-70
2021/06/28 18:06:16;;;;;;;4.28;1.70;;;;;;;;;;6092848;29;20052;-73
2021/06/28 18:09:17;;;;;;;7.70;2.07;;;;;;;;;;6089616;29;20412;-73
2021/06/28 18:12:20;;;;;;;3.33;1.92;;;;;;;;;;6096118;29;20081;-70
2021/06/28 18:15:22;;;;;;;2.50;1.63;;;;;;;;;;6098690;29;20068;-73
2021/06/28 18:18:24;;;;;;;3.70;1.75;;;;;;;;;;6100753;29;20175;-71
2021/06/28 18:21:28;;;;;;;5.32;1.75;;;;;;;;;;6091529;29;20939;-71